Le Roy, Illinois
Current Conditions -  °F | °C
As of 10:10 AM on Saturday 25 Oct 2014 (Local Time) from KBMI Reporting Station
Haze Haze  
Wind Chill: 16°   Ceiling: Unl
Heat Index: 16°   Visibility: 4mi
Dew Point: 14°   Wind: 8mph
Humidity: 88%   Direction: 290°WNW
Pressure: 30.02"   Gusts: NA
Location:  40.35°N, 88.76°W
Report Text: KBMI 251510Z 29007KT 4SM BR SCT001 16/14 A3002 RMK AO2
Loading
Personal Weather Stations






























Interactive Weather Map
Tropical Storm Tracking
New forecast layout! Learn more

10-Day Weather Forecast

Advertisements
Track Severe Weather on mobile